createdAt,value
2022-07-25T00:00:18.993Z,24.50
2022-07-25T00:05:40.046Z,24.40
2022-07-25T00:10:44.779Z,24.30
2022-07-25T00:15:48.199Z,24.30
2022-07-25T00:20:51.610Z,24.20
2022-07-25T00:25:56.293Z,24.10
2022-07-25T00:30:59.777Z,24.00
2022-07-25T00:36:03.185Z,24.00
2022-07-25T00:41:07.992Z,23.90
2022-07-25T00:46:13.913Z,23.90
2022-07-25T00:51:22.605Z,23.90
2022-07-25T00:56:27.861Z,23.90
2022-07-25T01:01:31.390Z,23.80
2022-07-25T01:06:34.960Z,23.70
2022-07-25T01:11:40.732Z,23.70
2022-07-25T01:16:44.090Z,23.70
2022-07-25T01:21:48.893Z,23.60
2022-07-25T01:26:52.310Z,23.60
2022-07-25T01:31:56.138Z,23.60
2022-07-25T01:37:00.937Z,23.50
2022-07-25T01:42:04.368Z,23.50
2022-07-25T01:47:07.725Z,23.40
2022-07-25T01:52:12.621Z,23.40
2022-07-25T01:57:17.230Z,23.40
2022-07-25T02:02:20.828Z,23.20
2022-07-25T02:07:25.515Z,23.20
2022-07-25T02:12:29.029Z,23.10
2022-07-25T02:17:32.418Z,23.10
2022-07-25T02:22:37.382Z,23.00
2022-07-25T02:27:40.708Z,22.90
2022-07-25T02:32:44.347Z,22.90
2022-07-25T02:37:49.154Z,22.80
2022-07-25T02:42:52.481Z,22.70
2022-07-25T02:47:55.840Z,22.60
2022-07-25T02:53:01.709Z,22.50
2022-07-25T02:58:05.673Z,22.40
2022-07-25T03:03:09.341Z,22.40
2022-07-25T03:08:14.013Z,22.30
2022-07-25T03:13:17.318Z,22.20
2022-07-25T03:18:20.836Z,22.20
2022-07-25T03:23:27.363Z,22.10
2022-07-25T03:28:30.892Z,22.10
2022-07-25T03:33:35.051Z,22.00
2022-07-25T03:38:40.310Z,22.00
2022-07-25T03:43:43.672Z,22.00
2022-07-25T03:48:47.191Z,21.90
2022-07-25T03:54:04.682Z,21.90
2022-07-25T03:59:09.198Z,21.90
2022-07-25T04:04:13.070Z,21.90
2022-07-25T04:09:17.859Z,21.80
2022-07-25T04:14:21.465Z,21.80
2022-07-25T04:19:26.192Z,21.70
2022-07-25T04:24:33.111Z,21.70
2022-07-25T04:29:36.516Z,21.70
2022-07-25T04:34:39.839Z,21.70
2022-07-25T04:39:44.867Z,21.60
2022-07-25T04:44:48.215Z,21.70
2022-07-25T04:49:52.032Z,21.70
2022-07-25T04:54:56.694Z,21.70
2022-07-25T05:00:00.710Z,21.70
2022-07-25T05:05:04.563Z,21.80
2022-07-25T05:10:10.314Z,21.70
2022-07-25T05:15:13.934Z,21.80
2022-07-25T05:20:17.421Z,21.80
2022-07-25T05:25:22.754Z,21.90
2022-07-25T05:30:26.412Z,21.80
2022-07-25T05:35:30.924Z,21.80
2022-07-25T05:40:35.688Z,21.90
2022-07-25T05:45:39.286Z,21.90
2022-07-25T05:50:42.861Z,22.00
2022-07-25T05:55:47.796Z,22.10
2022-07-25T06:00:52.899Z,22.10
2022-07-25T06:05:57.362Z,22.20
2022-07-25T06:11:03.980Z,22.30
2022-07-25T06:16:08.740Z,22.40
2022-07-25T06:21:12.669Z,22.50
2022-07-25T06:26:17.704Z,22.60
2022-07-25T06:31:21.388Z,22.70
2022-07-25T06:36:24.740Z,22.80
2022-07-25T06:41:38.026Z,22.90
2022-07-25T06:46:41.523Z,22.90
2022-07-25T06:51:45.345Z,23.10
2022-07-25T06:56:50.062Z,23.20
2022-07-25T07:01:53.783Z,23.30
2022-07-25T07:06:59.937Z,23.40
2022-07-25T07:12:04.777Z,23.50
2022-07-25T07:17:08.135Z,23.70
2022-07-25T07:22:11.525Z,23.80
2022-07-25T07:27:19.104Z,23.90
2022-07-25T07:32:23.084Z,24.10
2022-07-25T07:37:29.396Z,24.20
2022-07-25T07:42:41.200Z,24.30
2022-07-25T07:47:46.858Z,24.50
2022-07-25T07:52:51.470Z,24.50
2022-07-25T07:57:56.394Z,24.70
2022-07-25T08:03:00.882Z,24.90
2022-07-25T08:08:05.288Z,25.00
2022-07-25T08:13:16.318Z,25.20
2022-07-25T08:18:19.723Z,25.30
2022-07-25T08:23:25.350Z,25.40
2022-07-25T08:28:30.526Z,25.50
2022-07-25T08:33:34.210Z,25.60
2022-07-25T08:38:37.556Z,25.70
2022-07-25T08:43:44.334Z,25.80
2022-07-25T08:48:48.234Z,26.00
2022-07-25T08:53:52.031Z,26.10
2022-07-25T08:58:58.952Z,26.20
2022-07-25T09:04:03.382Z,26.30
2022-07-25T09:09:08.636Z,26.50
2022-07-25T09:14:15.278Z,26.60
2022-07-25T09:19:21.369Z,26.70
2022-07-25T09:24:24.837Z,26.80
2022-07-25T09:29:31.263Z,26.90
2022-07-25T09:34:40.071Z,27.00
2022-07-25T09:39:47.396Z,27.20
2022-07-25T09:45:06.440Z,27.30
2022-07-25T09:50:10.499Z,27.40
2022-07-25T09:55:16.689Z,27.60
2022-07-25T10:00:24.381Z,27.70
2022-07-25T10:05:40.024Z,27.80
2022-07-25T10:10:43.860Z,27.90
2022-07-25T10:15:50.454Z,28.00
2022-07-25T10:20:56.513Z,28.00
2022-07-25T10:26:08.293Z,28.10
2022-07-25T10:31:21.926Z,28.20
2022-07-25T10:36:30.163Z,28.30
2022-07-25T10:41:33.803Z,28.50
2022-07-25T10:46:38.625Z,28.60
2022-07-25T10:51:42.299Z,28.70
2022-07-25T10:56:54.727Z,29.00
2022-07-25T11:01:59.919Z,29.50
2022-07-25T11:07:10.060Z,30.10
2022-07-25T11:12:16.673Z,30.90
2022-07-25T11:17:23.455Z,31.50
2022-07-25T11:22:28.445Z,32.00
2022-07-25T11:27:33.892Z,32.50
2022-07-25T11:32:43.131Z,32.80
2022-07-25T11:37:49.027Z,33.10
2022-07-25T11:42:54.334Z,33.40
2022-07-25T11:48:08.120Z,33.70
2022-07-25T11:53:14.498Z,34.10
2022-07-25T11:58:19.622Z,34.20
2022-07-25T12:03:24.482Z,34.50
2022-07-25T12:08:28.126Z,34.60
2022-07-25T12:13:32.672Z,34.60
2022-07-25T12:18:39.864Z,34.60
2022-07-25T12:23:43.237Z,34.70
2022-07-25T12:28:46.695Z,34.60
2022-07-25T12:33:52.696Z,34.50
2022-07-25T12:38:56.048Z,34.50
2022-07-25T12:44:01.019Z,34.50
2022-07-25T12:49:06.106Z,34.50
2022-07-25T12:54:10.076Z,34.50
2022-07-25T12:59:13.899Z,34.50
2022-07-25T13:04:18.865Z,34.50
2022-07-25T13:09:22.712Z,34.50
2022-07-25T13:14:26.667Z,34.60
2022-07-25T13:19:31.656Z,34.70
2022-07-25T13:24:35.294Z,34.80
2022-07-25T13:29:38.620Z,34.90
2022-07-25T13:34:43.576Z,35.10
2022-07-25T13:39:46.958Z,35.20
2022-07-25T13:44:50.392Z,35.40
2022-07-25T13:49:55.679Z,35.50
2022-07-25T13:54:59.105Z,35.70
2022-07-25T14:00:03.037Z,36.00
2022-07-25T14:05:08.903Z,36.20
2022-07-25T14:10:12.553Z,36.30
2022-07-25T14:15:15.948Z,36.50
2022-07-25T14:20:20.676Z,36.80
2022-07-25T14:25:24.175Z,37.00
2022-07-25T14:30:28.120Z,37.20
2022-07-25T14:35:33.016Z,37.60
2022-07-25T14:40:37.133Z,38.10
2022-07-25T14:45:42.230Z,38.50
2022-07-25T14:50:46.968Z,39.00
2022-07-25T14:55:50.361Z,39.50
2022-07-25T15:00:53.713Z,40.10
2022-07-25T15:05:58.473Z,40.80
2022-07-25T15:11:03.141Z,41.50
2022-07-25T15:16:06.873Z,42.30
2022-07-25T15:21:11.760Z,42.90
2022-07-25T15:26:15.306Z,43.80
2022-07-25T15:31:20.895Z,44.70
2022-07-25T15:36:29.500Z,45.40
2022-07-25T15:41:33.343Z,46.10
2022-07-25T15:46:39.535Z,46.80
2022-07-25T15:51:44.314Z,47.50
2022-07-25T15:56:48.067Z,47.90
2022-07-25T16:01:51.444Z,48.00
2022-07-25T16:06:56.125Z,47.90
2022-07-25T16:12:00.179Z,48.10
2022-07-25T16:17:03.818Z,48.30
2022-07-25T16:22:08.517Z,47.80
2022-07-25T16:27:11.888Z,47.40
2022-07-25T16:32:15.738Z,46.80
2022-07-25T16:37:21.313Z,46.30
2022-07-25T16:42:25.026Z,45.80
2022-07-25T16:47:28.552Z,45.40
2022-07-25T16:52:33.626Z,45.40
2022-07-25T16:57:39.306Z,45.20
2022-07-25T17:02:43.981Z,45.40
2022-07-25T17:07:57.015Z,45.50
2022-07-25T17:13:03.580Z,45.00
2022-07-25T17:18:07.470Z,44.20
2022-07-25T17:23:12.355Z,43.40
2022-07-25T17:28:15.816Z,42.60
2022-07-25T17:33:19.395Z,41.70
2022-07-25T17:38:27.622Z,41.20
2022-07-25T17:43:32.788Z,40.90
2022-07-25T17:48:36.321Z,40.50
2022-07-25T17:53:42.164Z,40.10
2022-07-25T17:58:45.509Z,39.80
2022-07-25T18:03:50.309Z,39.50
2022-07-25T18:08:55.181Z,39.10
2022-07-25T18:13:59.477Z,38.80
2022-07-25T18:19:02.955Z,38.50
2022-07-25T18:24:10.213Z,38.20
2022-07-25T18:29:13.956Z,37.90
2022-07-25T18:34:17.901Z,37.60
2022-07-25T18:39:23.004Z,37.20
2022-07-25T18:44:28.081Z,36.90
2022-07-25T18:49:31.890Z,36.50
2022-07-25T18:54:36.874Z,36.20
2022-07-25T18:59:42.033Z,35.90
2022-07-25T19:04:45.575Z,35.70
2022-07-25T19:09:51.511Z,35.40
2022-07-25T19:14:55.207Z,35.10
2022-07-25T19:19:58.677Z,34.90
2022-07-25T19:25:05.802Z,34.60
2022-07-25T19:30:17.002Z,34.40
2022-07-25T19:35:26.078Z,34.10
2022-07-25T19:40:32.614Z,33.90
2022-07-25T19:45:39.046Z,33.70
2022-07-25T19:50:42.762Z,33.50
2022-07-25T19:55:49.391Z,33.30
2022-07-25T20:00:53.089Z,33.10
2022-07-25T20:05:57.104Z,32.90
2022-07-25T20:11:02.546Z,32.70
2022-07-25T20:16:06.760Z,32.60
2022-07-25T20:21:11.498Z,32.40
2022-07-25T20:26:16.915Z,32.30
2022-07-25T20:31:22.461Z,32.10
2022-07-25T20:36:26.056Z,32.00
2022-07-25T20:41:31.002Z,31.80
2022-07-25T20:46:35.976Z,31.60
2022-07-25T20:51:40.816Z,31.50
2022-07-25T20:56:45.806Z,31.40
2022-07-25T21:01:49.323Z,31.20
2022-07-25T21:06:53.038Z,31.00
2022-07-25T21:12:02.779Z,31.00
2022-07-25T21:17:08.332Z,31.00
2022-07-25T21:22:11.790Z,30.90
2022-07-25T21:27:16.590Z,30.80
2022-07-25T21:32:21.425Z,30.70
2022-07-25T21:37:25.014Z,30.60
2022-07-25T21:42:30.517Z,30.50
2022-07-25T21:47:33.938Z,30.40
2022-07-25T21:52:37.312Z,30.30
2022-07-25T21:57:42.989Z,30.30
2022-07-25T22:03:11.917Z,30.20
2022-07-25T22:08:15.724Z,30.10
2022-07-25T22:13:21.233Z,30.10
2022-07-25T22:18:25.571Z,30.00
2022-07-25T22:23:33.454Z,29.80
2022-07-25T22:28:41.986Z,29.60
2022-07-25T22:33:46.426Z,29.50
2022-07-25T22:38:50.548Z,29.40
2022-07-25T22:43:57.208Z,29.30
2022-07-25T22:49:03.091Z,29.20
2022-07-25T22:54:07.587Z,29.20
2022-07-25T22:59:14.056Z,29.10
2022-07-25T23:04:18.016Z,29.00
2022-07-25T23:09:23.657Z,28.90
2022-07-25T23:14:28.858Z,28.90
2022-07-25T23:19:33.380Z,28.80
2022-07-25T23:24:38.160Z,28.70
2022-07-25T23:29:44.327Z,28.70
2022-07-25T23:34:48.674Z,28.60
2022-07-25T23:39:52.412Z,28.50
2022-07-25T23:45:48.826Z,28.40
2022-07-25T23:50:56.383Z,28.30
2022-07-25T23:56:00.214Z,28.30
